Svyataya Anna — UUCV — position and weather

sailwx.info

Track history (hours):
 
Tides and Currents Weather Stations Pressure Air Temp Water Temp Dewpoint Dewpoint Depression Visibility Wind Speed Wind Dir Waves Ship Positions

Svyataya Anna

Last reported at 2015-Jan-21 14:12 UTC. Time now 2015-Jan-27 19:00 UTC.
Position N 46°33' E 031°60'.

Length 93 m; draft 3.2 m.

MMSI: 272068800.

Date/timePositionNaut miles runAvg speedWind from/ knotsBaromVisibWave heightAir tempDewpointWater temp
2015-Jan-21 14:12N 46°33' E 031°60'4 6.8
2015-Jan-21 13:34N 46°34' E 031°54'7 6.8
2015-Jan-21 12:29N 46°36' E 031°43'5 5.2
2015-Jan-21 11:30N 46°35' E 031°36'7 2.3
2015-Jan-21 08:17N 46°34' E 031°25'0 0.0
2015-Jan-21 03:05N 46°34' E 031°25'0 0.0
2015-Jan-21 00:08N 46°34' E 031°25'0 0.0
2015-Jan-20 19:29N 46°34' E 031°25'0 0.0
2015-Jan-20 11:14N 46°34' E 031°25'0 0.0
2015-Jan-20 10:14N 46°34' E 031°25'0 0.0
2015-Jan-20 09:29N 46°34' E 031°25'0 0.0
2015-Jan-20 08:23N 46°34' E 031°25'2 0.9
2015-Jan-20 06:33N 46°33' E 031°23'  
2015-Jan-18 00:24N 46°23' E 031°07'  
2015-Jan-14 10:30N 46°23' E 031°09'172 5.2
2015-Jan-13 01:05N 44°25' E 034°08'3 6.4
2015-Jan-13 00:33N 44°28' E 034°10'  
Track history (hours):
 
Tides and Currents Weather Stations Pressure Air Temp Water Temp Dewpoint Dewpoint Depression Visibility Wind Speed Wind Dir Waves Ship Positions

Svyataya Anna

Last reported at 2015-Jan-21 14:12 UTC. Time now 2015-Jan-27 19:00 UTC.
Position N 46°33' E 031°60'.

Length 93 m; draft 3.2 m.

MMSI: 272068800.

Date/timePositionNaut miles runAvg speedWind from/ knotsBaromVisibWave heightAir tempDewpointWater temp
2015-Jan-21 14:12N 46°33' E 031°60'4 6.8
2015-Jan-21 13:34N 46°34' E 031°54'7 6.8
2015-Jan-21 12:29N 46°36' E 031°43'5 5.2
2015-Jan-21 11:30N 46°35' E 031°36'7 2.3
2015-Jan-21 08:17N 46°34' E 031°25'0 0.0
2015-Jan-21 03:05N 46°34' E 031°25'0 0.0
2015-Jan-21 00:08N 46°34' E 031°25'0 0.0
2015-Jan-20 19:29N 46°34' E 031°25'0 0.0
2015-Jan-20 11:14N 46°34' E 031°25'0 0.0
2015-Jan-20 10:14N 46°34' E 031°25'0 0.0
2015-Jan-20 09:29N 46°34' E 031°25'0 0.0
2015-Jan-20 08:23N 46°34' E 031°25'2 0.9
2015-Jan-20 06:33N 46°33' E 031°23'  
2015-Jan-18 00:24N 46°23' E 031°07'  
2015-Jan-14 10:30N 46°23' E 031°09'172 5.2
2015-Jan-13 01:05N 44°25' E 034°08'3 6.4
2015-Jan-13 00:33N 44°28' E 034°10'  

Dump ship's entire track history